createdAt,value
2023-01-23T00:01:03.461Z,11.50
2023-01-23T00:03:30.959Z,11.00
2023-01-23T00:06:01.759Z,13.98
2023-01-23T00:08:29.436Z,10.38
2023-01-23T00:10:56.963Z,10.90
2023-01-23T00:13:24.418Z,8.95
2023-01-23T00:15:51.999Z,10.43
2023-01-23T00:18:19.387Z,9.00
2023-01-23T00:20:46.708Z,10.93
2023-01-23T00:23:15.118Z,10.18
2023-01-23T00:25:42.497Z,10.27
2023-01-23T00:28:10.335Z,10.13
2023-01-23T00:30:37.815Z,11.65
2023-01-23T00:33:05.234Z,12.38
2023-01-23T00:35:35.175Z,11.30
2023-01-23T00:38:02.535Z,10.82
2023-01-23T00:40:29.988Z,9.63
2023-01-23T00:42:57.310Z,9.18
2023-01-23T00:45:24.631Z,10.35
2023-01-23T00:47:51.927Z,11.35
2023-01-23T00:50:19.488Z,11.05
2023-01-23T00:52:47.007Z,10.73
2023-01-23T00:55:14.361Z,10.35
2023-01-23T00:57:41.976Z,9.27
2023-01-23T01:00:09.781Z,11.20
2023-01-23T01:02:37.293Z,12.07
2023-01-23T01:05:04.767Z,9.50
2023-01-23T01:07:32.229Z,11.38
2023-01-23T01:10:02.317Z,11.60
2023-01-23T01:12:29.702Z,13.63
2023-01-23T01:14:57.003Z,10.90
2023-01-23T01:17:24.300Z,9.52
2023-01-23T01:19:51.646Z,7.65
2023-01-23T01:22:18.986Z,9.40
2023-01-23T01:24:46.302Z,8.82
2023-01-23T01:27:13.597Z,8.50
2023-01-23T01:29:40.903Z,5.53
2023-01-23T01:32:08.492Z,4.13
2023-01-23T01:34:36.014Z,3.65
2023-01-23T01:37:03.396Z,3.70
2023-01-23T01:39:33.416Z,3.42
2023-01-23T01:42:01.006Z,4.47
2023-01-23T01:44:28.351Z,4.18
2023-01-23T01:46:55.783Z,4.13
2023-01-23T01:49:26.404Z,3.95
2023-01-23T01:52:07.785Z,5.25
2023-01-23T01:54:38.088Z,3.83
2023-01-23T01:57:05.327Z,3.97
2023-01-23T01:59:35.613Z,4.10
2023-01-23T02:02:10.459Z,5.05
2023-01-23T02:04:39.833Z,4.47
2023-01-23T02:07:10.292Z,6.38
2023-01-23T02:09:38.264Z,5.38
2023-01-23T02:12:05.699Z,5.45
2023-01-23T02:14:33.089Z,5.70
2023-01-23T02:17:03.054Z,5.40
2023-01-23T02:19:48.734Z,6.45
2023-01-23T02:24:46.183Z,5.55
2023-01-23T02:27:13.622Z,5.95
2023-01-23T02:29:42.346Z,6.50
2023-01-23T02:32:10.459Z,6.65
2023-01-23T02:34:38.973Z,6.57
2023-01-23T02:37:07.495Z,7.25
2023-01-23T02:39:35.180Z,6.93
2023-01-23T02:42:06.019Z,6.18
2023-01-23T02:44:33.339Z,8.18
2023-01-23T02:47:02.272Z,6.45
2023-01-23T02:49:29.924Z,7.63
2023-01-23T02:51:57.907Z,7.68
2023-01-23T02:54:27.792Z,8.75
2023-01-23T02:56:55.190Z,9.13
2023-01-23T02:59:41.104Z,6.78
2023-01-23T03:02:08.475Z,9.95
2023-01-23T03:04:35.858Z,7.35
2023-01-23T03:07:03.511Z,8.30
2023-01-23T03:09:30.802Z,9.43
2023-01-23T03:11:58.208Z,6.97
2023-01-23T03:14:25.804Z,7.68
2023-01-23T03:16:54.239Z,6.45
2023-01-23T03:19:23.650Z,6.85
2023-01-23T03:21:51.630Z,6.85
2023-01-23T03:24:19.349Z,6.45
2023-01-23T03:26:47.649Z,8.15
2023-01-23T03:29:38.208Z,8.10
2023-01-23T03:32:05.666Z,8.10
2023-01-23T03:34:33.472Z,10.70
2023-01-23T03:37:01.494Z,8.55
2023-01-23T03:39:47.342Z,6.93
2023-01-23T03:42:14.722Z,7.28
2023-01-23T03:44:42.159Z,7.97
2023-01-23T03:47:11.862Z,8.70
2023-01-23T03:49:39.226Z,9.02
2023-01-23T03:52:06.786Z,11.38
2023-01-23T03:54:34.179Z,12.80
2023-01-23T03:57:01.542Z,12.82
2023-01-23T03:59:28.897Z,11.80
2023-01-23T04:01:58.197Z,13.20
2023-01-23T04:04:25.512Z,12.65
2023-01-23T04:06:52.985Z,14.35
2023-01-23T04:09:20.449Z,12.23
2023-01-23T04:11:47.721Z,14.20
2023-01-23T04:14:14.989Z,12.95
2023-01-23T04:16:42.512Z,15.13
2023-01-23T04:19:09.922Z,18.45
2023-01-23T04:21:37.181Z,15.00
2023-01-23T04:24:04.626Z,16.20
2023-01-23T04:26:32.009Z,15.50
2023-01-23T04:28:59.269Z,16.15
2023-01-23T04:31:26.744Z,16.00
2023-01-23T04:33:54.052Z,16.63
2023-01-23T04:36:21.461Z,14.93
2023-01-23T04:38:48.844Z,14.52
2023-01-23T04:41:20.395Z,16.88
2023-01-23T04:43:47.815Z,16.70
2023-01-23T04:46:15.461Z,16.67
2023-01-23T04:48:42.950Z,18.67
2023-01-23T04:51:10.376Z,14.65
2023-01-23T04:53:37.789Z,15.60
2023-01-23T04:56:05.500Z,17.27
2023-01-23T04:58:32.988Z,15.45
2023-01-23T05:01:07.172Z,18.00
2023-01-23T05:03:35.440Z,15.93
2023-01-23T05:06:02.840Z,16.55
2023-01-23T05:08:30.220Z,15.88
2023-01-23T05:10:57.467Z,17.20
2023-01-23T05:13:24.820Z,14.98
2023-01-23T05:15:52.198Z,16.17
2023-01-23T05:18:19.636Z,16.05
2023-01-23T05:20:46.915Z,16.08
2023-01-23T05:23:14.281Z,17.23
2023-01-23T05:25:41.674Z,15.80
2023-01-23T05:28:11.534Z,17.02
2023-01-23T05:30:39.146Z,16.58
2023-01-23T05:33:06.500Z,14.68
2023-01-23T05:35:33.895Z,15.63
2023-01-23T05:38:01.577Z,14.32
2023-01-23T05:40:28.890Z,15.00
2023-01-23T05:42:56.171Z,12.13
2023-01-23T05:45:23.740Z,10.25
2023-01-23T05:47:51.193Z,9.82
2023-01-23T05:50:19.924Z,11.02
2023-01-23T05:52:47.520Z,12.18
2023-01-23T05:55:14.998Z,9.18
2023-01-23T05:57:42.550Z,9.18
2023-01-23T06:00:10.211Z,9.80
2023-01-23T06:02:37.612Z,8.75
2023-01-23T06:05:05.072Z,7.32
2023-01-23T06:07:32.425Z,9.57
2023-01-23T06:09:59.802Z,8.98
2023-01-23T06:12:27.280Z,8.15
2023-01-23T06:14:54.638Z,7.75
2023-01-23T06:17:21.912Z,8.57
2023-01-23T06:19:49.485Z,9.50
2023-01-23T06:22:17.013Z,8.30
2023-01-23T06:24:44.350Z,9.60
2023-01-23T06:27:11.669Z,11.45
2023-01-23T06:29:39.045Z,11.77
2023-01-23T06:32:06.615Z,12.98
2023-01-23T06:34:34.144Z,7.93
2023-01-23T06:37:01.581Z,13.25
2023-01-23T06:39:30.411Z,11.90
2023-01-23T06:41:58.210Z,12.73
2023-01-23T06:44:25.563Z,13.10
2023-01-23T06:46:55.875Z,13.48
2023-01-23T06:49:23.188Z,11.05
2023-01-23T06:51:50.461Z,13.93
2023-01-23T06:54:17.868Z,15.68
2023-01-23T06:56:45.329Z,16.88
2023-01-23T06:59:12.684Z,15.07
2023-01-23T07:01:40.201Z,15.40
2023-01-23T07:04:09.137Z,16.83
2023-01-23T07:06:36.677Z,16.23
2023-01-23T07:09:04.304Z,17.20
2023-01-23T07:11:31.659Z,17.10
2023-01-23T07:13:58.955Z,17.85
2023-01-23T07:16:26.329Z,20.83
2023-01-23T07:18:54.319Z,20.80
2023-01-23T07:21:21.709Z,20.23
2023-01-23T07:23:51.163Z,19.13
2023-01-23T07:26:18.472Z,23.55
2023-01-23T07:28:45.825Z,21.10
2023-01-23T07:31:13.968Z,18.60
2023-01-23T07:33:41.364Z,23.73
2023-01-23T07:36:08.970Z,21.13
2023-01-23T07:38:36.401Z,18.98
2023-01-23T07:41:03.816Z,21.90
2023-01-23T07:43:31.183Z,20.83
2023-01-23T07:46:01.749Z,18.40
2023-01-23T07:48:29.582Z,22.10
2023-01-23T07:50:56.990Z,19.13
2023-01-23T07:53:24.354Z,21.42
2023-01-23T07:55:51.666Z,26.23
2023-01-23T07:58:19.119Z,25.42
2023-01-23T08:00:46.449Z,22.58
2023-01-23T08:03:13.871Z,22.65
2023-01-23T08:05:43.704Z,25.73
2023-01-23T08:08:13.905Z,21.88
2023-01-23T08:10:42.091Z,22.27
2023-01-23T08:13:09.557Z,24.20
2023-01-23T08:15:38.886Z,31.35
2023-01-23T08:18:06.228Z,24.45
2023-01-23T08:20:33.643Z,25.15
2023-01-23T08:23:02.455Z,26.10
2023-01-23T08:25:29.954Z,30.58
2023-01-23T08:27:57.368Z,26.45
2023-01-23T08:30:24.748Z,27.35
2023-01-23T08:32:52.119Z,24.70
2023-01-23T08:35:19.430Z,22.23
2023-01-23T08:37:46.711Z,24.25
2023-01-23T08:40:14.203Z,21.35
2023-01-23T08:42:41.461Z,21.00
2023-01-23T08:45:09.176Z,20.15
2023-01-23T08:47:37.156Z,17.55
2023-01-23T08:50:07.523Z,18.40
2023-01-23T08:52:35.507Z,17.25
2023-01-23T08:55:03.051Z,18.00
2023-01-23T08:57:31.317Z,17.80
2023-01-23T08:59:58.744Z,19.50
2023-01-23T09:02:26.062Z,20.20
2023-01-23T09:04:53.445Z,21.95
2023-01-23T09:07:20.789Z,19.92
2023-01-23T09:09:48.096Z,22.35
2023-01-23T09:12:15.520Z,20.52
2023-01-23T09:14:42.879Z,24.55
2023-01-23T09:17:10.243Z,22.90
2023-01-23T09:19:40.289Z,23.80
2023-01-23T09:22:07.683Z,21.60
2023-01-23T09:24:35.160Z,25.95
2023-01-23T09:27:02.507Z,23.50
2023-01-23T09:29:29.910Z,21.98
2023-01-23T09:31:59.181Z,23.00
2023-01-23T09:34:26.535Z,22.42
2023-01-23T09:36:53.876Z,25.92
2023-01-23T09:39:21.261Z,25.48
2023-01-23T09:41:49.448Z,28.55
2023-01-23T09:44:20.973Z,30.60
2023-01-23T09:47:05.293Z,25.73
2023-01-23T09:49:41.493Z,24.30
2023-01-23T09:52:15.530Z,29.70
2023-01-23T09:54:47.291Z,25.60
2023-01-23T09:57:16.620Z,22.73
2023-01-23T09:59:59.805Z,24.25
2023-01-23T10:02:27.580Z,25.52
2023-01-23T10:04:56.303Z,22.85
2023-01-23T10:07:23.651Z,19.55
2023-01-23T10:10:09.345Z,23.00
2023-01-23T10:15:09.359Z,21.67
2023-01-23T10:17:39.779Z,20.98
2023-01-23T10:20:07.135Z,21.08
2023-01-23T10:22:59.071Z,19.10
2023-01-23T10:25:41.347Z,24.38
2023-01-23T10:28:14.536Z,20.15
2023-01-23T10:30:42.851Z,22.30
2023-01-23T10:33:19.865Z,24.33
2023-01-23T10:35:47.878Z,23.58
2023-01-23T10:38:27.511Z,19.80
2023-01-23T10:41:13.700Z,23.33
2023-01-23T10:43:54.042Z,22.52
2023-01-23T10:46:30.135Z,22.88
